createdAt,value
2019-02-21T00:00:05.681Z,15.33
2019-02-21T00:02:35.003Z,15.83
2019-02-21T00:05:05.243Z,16.13
2019-02-21T00:07:34.368Z,16.43
2019-02-21T00:10:03.571Z,14.83
2019-02-21T00:12:32.992Z,17.03
2019-02-21T00:15:03.534Z,16.83
2019-02-21T00:17:33.347Z,16.37
2019-02-21T00:20:04.019Z,14.90
2019-02-21T00:22:33.614Z,15.27
2019-02-21T00:25:03.339Z,15.03
2019-02-21T00:27:34.002Z,14.70
2019-02-21T00:30:03.121Z,15.33
2019-02-21T00:32:32.715Z,15.10
2019-02-21T00:35:03.349Z,16.80
2019-02-21T00:37:32.735Z,16.03
2019-02-21T00:40:01.852Z,15.10
2019-02-21T00:42:31.812Z,16.50
2019-02-21T00:45:01.202Z,16.30
2019-02-21T00:47:30.925Z,15.97
2019-02-21T00:50:00.334Z,15.37
2019-02-21T00:52:31.453Z,14.47
2019-02-21T00:55:01.385Z,15.07
2019-02-21T00:57:30.739Z,14.83
2019-02-21T01:00:00.315Z,14.03
2019-02-21T01:02:29.410Z,15.10
2019-02-21T01:04:59.120Z,15.70
2019-02-21T01:07:28.899Z,15.70
2019-02-21T01:09:58.890Z,14.63
2019-02-21T01:12:28.344Z,15.37
2019-02-21T01:14:57.736Z,15.73
2019-02-21T01:17:27.285Z,14.87
2019-02-21T01:19:56.871Z,14.17
2019-02-21T01:22:26.216Z,15.07
2019-02-21T01:24:55.833Z,14.50
2019-02-21T01:27:25.165Z,14.10
2019-02-21T01:29:54.732Z,14.00
2019-02-21T01:32:27.074Z,14.60
2019-02-21T01:34:56.821Z,15.80
2019-02-21T01:37:27.007Z,14.57
2019-02-21T01:39:56.731Z,14.40
2019-02-21T01:42:26.196Z,13.47
2019-02-21T01:44:55.745Z,14.37
2019-02-21T01:47:24.835Z,14.93
2019-02-21T01:49:54.208Z,15.10
2019-02-21T01:52:23.319Z,13.80
2019-02-21T01:54:52.584Z,11.77
2019-02-21T01:57:22.261Z,14.47
2019-02-21T01:59:53.608Z,13.43
2019-02-21T02:02:24.438Z,13.47
2019-02-21T02:04:55.298Z,13.40
2019-02-21T02:07:26.287Z,14.27
2019-02-21T02:09:55.696Z,13.50
2019-02-21T02:12:24.609Z,14.17
2019-02-21T02:14:53.640Z,14.20
2019-02-21T02:17:22.721Z,14.00
2019-02-21T02:19:51.960Z,14.03
2019-02-21T02:22:21.613Z,13.03
2019-02-21T02:24:50.909Z,12.87
2019-02-21T02:27:20.578Z,13.83
2019-02-21T02:29:49.535Z,13.40
2019-02-21T02:32:18.794Z,14.37
2019-02-21T02:34:48.872Z,13.20
2019-02-21T02:37:18.216Z,13.77
2019-02-21T02:39:47.896Z,14.27
2019-02-21T02:42:17.130Z,14.37
2019-02-21T02:44:46.210Z,15.33
2019-02-21T02:47:15.608Z,14.30
2019-02-21T02:49:45.543Z,15.53
2019-02-21T02:52:16.069Z,15.17
2019-02-21T02:54:45.091Z,14.00
2019-02-21T02:57:16.602Z,13.33
2019-02-21T02:59:45.618Z,14.17
2019-02-21T03:02:15.554Z,14.00
2019-02-21T03:04:45.893Z,13.10
2019-02-21T03:07:15.444Z,14.67
2019-02-21T03:09:45.024Z,14.63
2019-02-21T03:12:14.059Z,14.37
2019-02-21T03:14:43.642Z,15.33
2019-02-21T03:17:12.516Z,13.37
2019-02-21T03:19:41.933Z,14.40
2019-02-21T03:22:11.758Z,14.20
2019-02-21T03:24:41.136Z,15.13
2019-02-21T03:27:10.860Z,13.97
2019-02-21T03:29:40.241Z,13.53
2019-02-21T03:32:09.207Z,15.07
2019-02-21T03:34:39.112Z,15.17
2019-02-21T03:37:08.642Z,14.90
2019-02-21T03:39:38.000Z,14.17
2019-02-21T03:42:07.056Z,14.53
2019-02-21T03:44:39.804Z,13.80
2019-02-21T03:47:09.120Z,14.73
2019-02-21T03:49:38.472Z,12.60
2019-02-21T03:52:08.025Z,15.10
2019-02-21T03:54:37.685Z,15.70
2019-02-21T03:57:09.582Z,15.67
2019-02-21T03:59:39.059Z,13.77
2019-02-21T04:02:08.332Z,13.87
2019-02-21T04:04:37.698Z,14.70
2019-02-21T04:07:07.445Z,15.00
2019-02-21T04:09:37.090Z,14.30
2019-02-21T04:12:06.165Z,12.90
2019-02-21T04:14:35.513Z,13.87
2019-02-21T04:17:04.849Z,14.50
2019-02-21T04:19:34.257Z,14.37
2019-02-21T04:22:05.370Z,13.87
2019-02-21T04:24:34.960Z,14.97
2019-02-21T04:27:04.030Z,13.20
2019-02-21T04:29:34.367Z,13.07
2019-02-21T04:32:16.029Z,13.27
2019-02-21T04:34:36.229Z,15.53
2019-02-21T04:37:06.151Z,13.80
2019-02-21T04:39:35.033Z,14.07
2019-02-21T04:42:04.738Z,15.17
2019-02-21T04:44:33.728Z,13.77
2019-02-21T04:47:02.825Z,13.97
2019-02-21T04:49:32.193Z,13.60
2019-02-21T04:52:02.179Z,14.53
2019-02-21T04:54:31.568Z,12.97
2019-02-21T04:57:00.592Z,14.33
2019-02-21T04:59:30.490Z,13.43
2019-02-21T05:02:00.103Z,15.47
2019-02-21T05:04:30.461Z,13.77
2019-02-21T05:07:02.083Z,13.90
2019-02-21T05:09:31.652Z,12.77
2019-02-21T05:12:02.171Z,14.20
2019-02-21T05:14:31.478Z,12.70
2019-02-21T05:17:01.216Z,13.83
2019-02-21T05:19:30.861Z,12.80
2019-02-21T05:22:00.002Z,14.23
2019-02-21T05:24:29.628Z,15.03
2019-02-21T05:27:04.722Z,12.37
2019-02-21T05:29:35.063Z,12.40
2019-02-21T05:32:24.718Z,13.90
2019-02-21T05:35:31.497Z,13.83
2019-02-21T05:38:20.016Z,13.47
2019-02-21T05:41:27.180Z,12.90
2019-02-21T05:44:09.710Z,15.47
2019-02-21T05:46:56.408Z,14.47
2019-02-21T05:49:51.368Z,14.37
2019-02-21T05:52:40.002Z,12.80
2019-02-21T05:55:17.396Z,12.77
2019-02-21T05:57:54.294Z,12.97
2019-02-21T06:00:52.682Z,13.83
2019-02-21T06:03:43.752Z,13.93
2019-02-21T06:06:35.507Z,15.07
2019-02-21T06:09:22.826Z,12.90
2019-02-21T06:12:13.924Z,14.63
2019-02-21T06:14:50.238Z,14.83
2019-02-21T06:17:38.378Z,13.07
2019-02-21T06:20:17.966Z,14.13
2019-02-21T06:23:12.493Z,14.33
2019-02-21T06:26:03.713Z,12.90
2019-02-21T06:28:37.586Z,13.63
2019-02-21T06:31:13.555Z,13.23
2019-02-21T06:33:43.412Z,12.97
2019-02-21T06:36:17.958Z,13.53
2019-02-21T06:38:50.114Z,12.10
2019-02-21T06:41:20.021Z,12.87
2019-02-21T06:43:56.529Z,12.53
2019-02-21T06:46:26.927Z,14.00
2019-02-21T06:48:57.561Z,13.33
2019-02-21T06:51:29.270Z,13.50
2019-02-21T06:53:59.241Z,12.33
2019-02-21T06:56:28.747Z,13.70
2019-02-21T06:59:00.139Z,12.23
2019-02-21T07:01:36.102Z,11.53
2019-02-21T07:04:06.540Z,13.60
2019-02-21T07:06:39.328Z,13.90
2019-02-21T07:09:09.206Z,12.70
2019-02-21T07:11:40.585Z,12.57
2019-02-21T07:14:13.306Z,13.07
2019-02-21T07:16:42.310Z,13.20
2019-02-21T07:19:12.014Z,13.23
2019-02-21T07:21:41.097Z,13.47
2019-02-21T07:24:10.320Z,12.17
2019-02-21T07:26:39.797Z,12.30
2019-02-21T07:29:09.397Z,12.83
2019-02-21T07:31:38.810Z,11.97
2019-02-21T07:34:08.670Z,13.80
2019-02-21T07:36:37.808Z,12.53
2019-02-21T07:39:16.979Z,14.17
2019-02-21T07:41:41.535Z,12.77
2019-02-21T07:44:12.366Z,13.20
2019-02-21T07:46:41.750Z,12.40
2019-02-21T07:49:11.051Z,14.13
2019-02-21T07:51:41.510Z,13.33
2019-02-21T07:54:11.250Z,15.07
2019-02-21T07:56:42.271Z,13.77
2019-02-21T07:59:12.244Z,14.37
2019-02-21T08:01:42.332Z,13.27
2019-02-21T08:04:11.801Z,13.57
2019-02-21T08:06:40.802Z,13.30
2019-02-21T08:09:10.693Z,11.80
2019-02-21T08:11:40.006Z,13.83
2019-02-21T08:14:11.139Z,13.63
2019-02-21T08:16:40.637Z,13.80
2019-02-21T08:19:10.043Z,14.37
2019-02-21T08:21:40.231Z,12.83
2019-02-21T08:24:13.172Z,14.33
2019-02-21T08:26:42.783Z,14.47
2019-02-21T08:29:13.760Z,13.27
2019-02-21T08:31:42.861Z,13.10
2019-02-21T08:34:20.469Z,14.23
2019-02-21T08:36:50.222Z,15.77
2019-02-21T08:39:20.368Z,14.30
2019-02-21T08:41:50.111Z,14.90
2019-02-21T08:44:20.309Z,15.60
2019-02-21T08:46:50.290Z,14.43
2019-02-21T08:49:21.777Z,15.10
2019-02-21T08:51:51.493Z,14.57
2019-02-21T08:54:20.465Z,15.10
2019-02-21T08:56:49.832Z,15.27
2019-02-21T08:59:19.002Z,14.67
2019-02-21T09:01:50.949Z,14.60
2019-02-21T09:04:27.588Z,14.23
2019-02-21T09:06:50.993Z,13.80
2019-02-21T09:09:20.975Z,15.90
2019-02-21T09:11:50.098Z,14.63
2019-02-21T09:14:19.590Z,14.30
2019-02-21T09:16:48.606Z,14.97
2019-02-21T09:19:20.310Z,13.57
2019-02-21T09:21:50.031Z,14.67
2019-02-21T09:24:37.856Z,13.30
2019-02-21T10:24:50.475Z,10.33
2019-02-21T10:27:21.546Z,9.83
2019-02-21T10:29:52.220Z,10.13
2019-02-21T10:32:23.198Z,11.10
2019-02-21T10:34:53.172Z,9.13
2019-02-21T10:37:22.516Z,8.97
2019-02-21T10:39:53.050Z,9.30
2019-02-21T10:42:22.193Z,9.27
2019-02-21T10:44:52.324Z,9.40
2019-02-21T10:47:22.009Z,9.60
2019-02-21T10:49:51.123Z,8.93
2019-02-21T10:52:20.601Z,9.53
2019-02-21T10:54:50.095Z,11.23
2019-02-21T10:57:20.460Z,9.73
2019-02-21T10:59:49.601Z,9.47
2019-02-21T11:02:18.758Z,9.60
2019-02-21T11:04:54.783Z,10.13
2019-02-21T11:07:27.580Z,10.53
2019-02-21T11:10:12.534Z,11.70
2019-02-21T11:12:42.848Z,10.20
2019-02-21T11:15:13.499Z,11.50
2019-02-21T11:17:42.930Z,11.33
2019-02-21T11:20:15.582Z,11.33
2019-02-21T11:22:51.387Z,12.47
2019-02-21T11:25:21.377Z,12.10
2019-02-21T11:27:51.628Z,11.97
2019-02-21T11:30:21.133Z,12.13
2019-02-21T11:32:51.857Z,10.87
2019-02-21T11:35:21.735Z,11.13
2019-02-21T11:37:51.806Z,11.10
2019-02-21T11:40:22.046Z,11.53
2019-02-21T11:42:54.413Z,11.20
2019-02-21T11:45:24.238Z,11.23
2019-02-21T11:47:54.695Z,10.40
2019-02-21T11:50:25.222Z,11.00
2019-02-21T11:52:55.206Z,10.70
2019-02-21T11:55:25.367Z,10.30
2019-02-21T11:57:54.669Z,10.90
2019-02-21T12:00:26.186Z,10.77
2019-02-21T12:02:55.541Z,11.90
2019-02-21T12:05:31.098Z,11.80
2019-02-21T12:07:59.839Z,12.20
2019-02-21T12:10:31.131Z,10.90
2019-02-21T12:13:01.876Z,12.23
2019-02-21T12:15:32.370Z,10.70
2019-02-21T12:18:04.050Z,12.43
2019-02-21T12:20:34.773Z,11.87
2019-02-21T12:23:04.344Z,12.40
2019-02-21T12:25:38.266Z,12.37
2019-02-21T12:28:07.666Z,11.73
2019-02-21T12:30:38.662Z,11.97
2019-02-21T12:33:15.821Z,14.03
2019-02-21T12:35:46.931Z,12.57
2019-02-21T12:38:16.396Z,11.53
2019-02-21T12:40:48.078Z,11.73
2019-02-21T12:43:17.231Z,11.10
2019-02-21T12:45:47.604Z,12.40
2019-02-21T12:48:18.036Z,12.63
2019-02-21T12:50:47.647Z,12.90
2019-02-21T12:53:18.416Z,12.57
2019-02-21T12:55:50.078Z,14.00
2019-02-21T12:58:24.899Z,12.43
2019-02-21T13:00:57.778Z,13.20
2019-02-21T13:03:47.822Z,13.23
2019-02-21T13:06:18.011Z,13.37
2019-02-21T13:08:51.156Z,13.77
2019-02-21T13:11:38.736Z,12.77
2019-02-21T13:14:20.044Z,12.90
2019-02-21T13:16:55.419Z,13.00
2019-02-21T13:19:25.984Z,12.03
2019-02-21T13:21:59.806Z,14.37
2019-02-21T13:24:31.000Z,12.70
2019-02-21T13:27:00.332Z,12.73
2019-02-21T13:29:32.056Z,12.50
2019-02-21T13:32:02.585Z,12.23
2019-02-21T13:34:33.161Z,13.70
2019-02-21T13:37:03.054Z,12.00
2019-02-21T13:39:33.225Z,12.80
2019-02-21T13:42:05.456Z,12.83
2019-02-21T13:44:34.805Z,12.47
2019-02-21T13:47:04.804Z,13.03
2019-02-21T13:49:34.759Z,12.87
2019-02-21T13:52:04.341Z,13.87
2019-02-21T13:54:33.586Z,13.17
2019-02-21T13:57:05.551Z,14.20
2019-02-21T13:59:36.913Z,13.40
2019-02-21T14:02:08.801Z,12.97
2019-02-21T14:04:38.254Z,12.90
2019-02-21T14:07:09.197Z,12.90
2019-02-21T14:09:43.555Z,13.30
2019-02-21T14:12:14.278Z,12.97
2019-02-21T14:14:44.259Z,12.50
2019-02-21T14:17:15.356Z,13.00
2019-02-21T14:19:44.627Z,12.23
2019-02-21T14:22:14.469Z,11.23
2019-02-21T14:24:43.686Z,10.90
2019-02-21T14:27:13.499Z,10.63
2019-02-21T14:29:43.046Z,10.20
2019-02-21T14:32:12.671Z,9.10
2019-02-21T14:34:42.583Z,9.13
2019-02-21T14:37:12.138Z,8.93
2019-02-21T14:39:41.877Z,8.50
2019-02-21T14:42:16.474Z,9.20
2019-02-21T14:44:49.690Z,8.73
2019-02-21T14:47:19.488Z,8.90
2019-02-21T14:49:50.448Z,8.37
2019-02-21T14:52:19.976Z,8.77
2019-02-21T14:54:49.820Z,8.77
2019-02-21T14:57:26.173Z,7.97
2019-02-21T14:59:53.404Z,8.33
2019-02-21T15:02:23.157Z,7.90
2019-02-21T15:04:54.661Z,7.70
2019-02-21T15:07:26.187Z,7.70
2019-02-21T15:09:54.676Z,7.10
2019-02-21T15:12:24.466Z,6.40
2019-02-21T15:14:54.564Z,7.20
2019-02-21T15:17:24.341Z,5.77
2019-02-21T15:19:53.884Z,6.57
2019-02-21T15:22:26.229Z,8.20
2019-02-21T15:24:55.785Z,6.30
2019-02-21T15:27:31.692Z,7.20
2019-02-21T15:30:05.411Z,6.70
2019-02-21T15:32:39.220Z,6.70
2019-02-21T15:35:08.783Z,6.80
2019-02-21T15:37:38.533Z,6.93
2019-02-21T15:40:09.423Z,6.40
2019-02-21T15:42:38.895Z,7.63
2019-02-21T15:45:21.901Z,7.07
2019-02-21T15:47:45.690Z,7.17
2019-02-21T15:50:15.951Z,6.53
2019-02-21T15:52:50.353Z,6.27
2019-02-21T15:55:21.684Z,6.20
2019-02-21T15:58:03.277Z,7.03
2019-02-21T16:00:30.237Z,7.87
2019-02-21T16:03:01.855Z,7.97
2019-02-21T16:05:32.518Z,6.50
2019-02-21T16:08:02.097Z,8.23
2019-02-21T16:10:32.768Z,6.83
2019-02-21T16:13:04.967Z,6.27
2019-02-21T16:15:35.395Z,6.53
2019-02-21T16:18:06.199Z,6.13
2019-02-21T16:20:39.734Z,7.53
2019-02-21T16:23:19.366Z,6.60
2019-02-21T16:25:48.449Z,7.00
2019-02-21T16:28:18.498Z,7.23
2019-02-21T16:30:50.606Z,6.37
2019-02-21T16:33:21.589Z,8.87
2019-02-21T16:35:52.460Z,7.20
2019-02-21T16:38:25.913Z,6.40
2019-02-21T16:40:55.902Z,8.27
2019-02-21T16:43:25.842Z,6.40
2019-02-21T16:46:07.120Z,7.13
2019-02-21T16:48:27.250Z,7.17
2019-02-21T16:50:57.488Z,6.57
2019-02-21T16:53:27.102Z,7.77
2019-02-21T16:56:00.165Z,6.43
2019-02-21T16:58:34.233Z,7.77
2019-02-21T17:01:07.247Z,6.63
2019-02-21T17:03:37.562Z,7.47
2019-02-21T17:06:13.675Z,10.20
2019-02-21T17:08:49.691Z,7.90
2019-02-21T17:11:20.532Z,7.40
2019-02-21T17:13:54.667Z,7.40
2019-02-21T17:16:26.155Z,6.90
2019-02-21T17:19:00.191Z,7.23
2019-02-21T17:21:34.661Z,7.47
2019-02-21T17:24:07.572Z,8.97
2019-02-21T17:26:37.769Z,8.43
2019-02-21T17:29:08.117Z,8.97
2019-02-21T17:31:38.127Z,9.13
2019-02-21T17:34:11.688Z,7.40
2019-02-21T17:36:43.531Z,8.60
2019-02-21T17:39:13.610Z,9.40
2019-02-21T17:41:44.006Z,9.10
2019-02-21T17:44:18.707Z,9.80
2019-02-21T17:46:50.288Z,10.17
2019-02-21T17:49:22.122Z,9.17
2019-02-21T17:52:00.349Z,9.23
2019-02-21T17:54:40.049Z,9.93
2019-02-21T17:57:28.288Z,9.90
2019-02-21T18:00:04.123Z,11.17
2019-02-21T18:02:40.526Z,9.40
2019-02-21T18:05:16.157Z,11.33
2019-02-21T18:07:52.491Z,11.60
2019-02-21T18:10:25.142Z,11.03
2019-02-21T18:12:56.856Z,11.80
2019-02-21T18:15:26.920Z,10.70
2019-02-21T18:17:56.940Z,11.37
2019-02-21T18:20:26.526Z,11.63
2019-02-21T18:22:56.813Z,11.63
2019-02-21T18:25:35.906Z,11.40
2019-02-21T18:28:05.857Z,11.63
2019-02-21T18:30:36.253Z,11.23
2019-02-21T18:33:08.807Z,11.43
2019-02-21T18:35:39.354Z,11.53
2019-02-21T18:38:09.840Z,12.53
2019-02-21T18:40:42.165Z,12.57
2019-02-21T18:43:13.782Z,11.93
2019-02-21T18:45:44.920Z,12.30
2019-02-21T18:48:19.382Z,13.70
2019-02-21T18:50:52.510Z,13.07
2019-02-21T18:53:22.642Z,14.47
2019-02-21T18:55:53.169Z,14.23
2019-02-21T18:58:23.891Z,15.53
2019-02-21T19:00:54.052Z,17.00
2019-02-21T19:03:28.931Z,17.87
2019-02-21T19:05:59.611Z,16.83
2019-02-21T19:08:30.318Z,15.20
2019-02-21T19:10:59.697Z,16.07
2019-02-21T19:13:33.343Z,15.07
2019-02-21T19:16:05.290Z,17.37
2019-02-21T19:18:38.924Z,15.73
2019-02-21T19:21:08.605Z,15.63
2019-02-21T19:23:41.564Z,16.87
2019-02-21T19:26:14.094Z,15.73
2019-02-21T19:29:01.042Z,16.77
2019-02-21T19:31:32.523Z,16.47
2019-02-21T19:34:02.738Z,16.30
2019-02-21T19:36:36.115Z,15.40
2019-02-21T19:39:06.721Z,16.87
2019-02-21T19:41:38.934Z,15.27
2019-02-21T19:44:09.411Z,17.57
2019-02-21T19:46:40.962Z,17.03
2019-02-21T19:49:11.342Z,15.73
2019-02-21T19:51:45.326Z,15.40
2019-02-21T19:54:14.730Z,15.77
2019-02-21T19:56:44.637Z,16.30
2019-02-21T19:59:14.073Z,14.50
2019-02-21T20:01:43.321Z,15.87
2019-02-21T20:04:15.879Z,15.20
2019-02-21T20:06:45.403Z,16.00
2019-02-21T20:09:18.117Z,16.03
2019-02-21T20:11:48.398Z,15.33
2019-02-21T20:14:20.700Z,15.23
2019-02-21T20:16:51.079Z,17.17
2019-02-21T20:19:20.980Z,14.93
2019-02-21T20:21:51.329Z,15.63
2019-02-21T20:24:24.427Z,16.73
2019-02-21T20:26:53.757Z,16.23
2019-02-21T20:29:23.915Z,17.00
2019-02-21T20:31:54.597Z,16.13
2019-02-21T20:34:24.729Z,17.03
2019-02-21T20:36:54.390Z,16.53
2019-02-21T20:39:25.232Z,16.77
2019-02-21T20:41:57.357Z,15.80
2019-02-21T20:44:26.900Z,15.30
2019-02-21T20:46:57.558Z,16.97
2019-02-21T20:49:28.046Z,16.23
2019-02-21T20:52:01.378Z,15.43
2019-02-21T20:54:34.679Z,16.50
2019-02-21T20:57:04.380Z,16.20
2019-02-21T20:59:35.688Z,17.87
2019-02-21T21:02:06.066Z,16.43
2019-02-21T21:04:36.146Z,16.03
2019-02-21T21:07:05.581Z,17.97
2019-02-21T21:09:35.347Z,17.27
2019-02-21T21:12:05.548Z,17.03
2019-02-21T21:14:36.967Z,17.37
2019-02-21T21:17:07.675Z,16.90
2019-02-21T21:19:37.226Z,17.30
2019-02-21T21:22:12.086Z,18.37
2019-02-21T21:24:41.718Z,18.40
2019-02-21T21:27:11.677Z,18.57
2019-02-21T21:29:41.367Z,17.40
2019-02-21T21:32:10.699Z,18.27
2019-02-21T21:34:41.171Z,17.77
2019-02-21T21:37:10.685Z,18.17
2019-02-21T21:39:39.939Z,17.43
2019-02-21T21:42:10.638Z,17.03
2019-02-21T21:44:42.370Z,17.10
2019-02-21T21:47:12.706Z,17.50
2019-02-21T21:49:43.612Z,18.23
2019-02-21T21:52:15.227Z,17.37
2019-02-21T21:54:44.788Z,17.97
2019-02-21T21:57:13.956Z,17.53
2019-02-21T21:59:44.150Z,16.60
2019-02-21T22:02:13.506Z,17.67
2019-02-21T22:04:43.220Z,16.77
2019-02-21T22:07:13.227Z,16.93
2019-02-21T22:09:43.442Z,17.07
2019-02-21T22:12:12.858Z,17.87
2019-02-21T22:14:42.614Z,17.37
2019-02-21T22:17:12.295Z,16.70
2019-02-21T22:19:41.859Z,16.13
2019-02-21T22:22:11.545Z,17.37
2019-02-21T22:24:41.297Z,16.07
2019-02-21T22:27:10.350Z,17.17
2019-02-21T22:29:39.946Z,15.80
2019-02-21T22:32:11.845Z,16.13
2019-02-21T22:34:41.789Z,16.47
2019-02-21T22:37:12.543Z,16.57
2019-02-21T22:39:42.526Z,17.57
2019-02-21T22:42:14.148Z,15.83
2019-02-21T22:44:43.584Z,17.07
2019-02-21T22:47:13.813Z,17.17
2019-02-21T22:49:43.296Z,16.37
2019-02-21T22:52:12.773Z,14.67
2019-02-21T22:54:42.160Z,15.27
2019-02-21T22:57:11.569Z,15.70
2019-02-21T22:59:40.591Z,16.23
2019-02-21T23:02:13.636Z,15.77
2019-02-21T23:05:17.469Z,16.93
2019-02-21T23:08:15.414Z,15.60
2019-02-21T23:10:44.420Z,15.90
2019-02-21T23:13:13.987Z,16.87
2019-02-21T23:15:45.697Z,15.47
2019-02-21T23:18:15.766Z,15.20
2019-02-21T23:20:44.959Z,15.13
2019-02-21T23:23:14.108Z,14.70
2019-02-21T23:25:43.722Z,15.03
2019-02-21T23:28:12.903Z,15.53
2019-02-21T23:30:42.320Z,15.40
2019-02-21T23:33:11.956Z,17.13
2019-02-21T23:35:41.372Z,15.30
2019-02-21T23:38:10.498Z,16.10
2019-02-21T23:40:40.373Z,16.47
2019-02-21T23:43:10.056Z,16.53
2019-02-21T23:45:40.178Z,17.30
2019-02-21T23:48:09.612Z,16.10
2019-02-21T23:50:39.323Z,15.00
2019-02-21T23:53:09.908Z,17.73
2019-02-21T23:55:42.077Z,16.73
2019-02-21T23:58:11.254Z,15.63
